sensor_id;sensor_type;location;lat;lon;timestamp;pressure;altitude;pressure_sealevel;temperature;humidity
25944;BME280;13742;49.306;8.636;2023-03-22T00:00:57;100318.39;;;10.74;81.72
25944;BME280;13742;49.306;8.636;2023-03-22T00:01:57;100314.18;;;10.73;81.31
25944;BME280;13742;49.306;8.636;2023-03-22T00:02:57;100317.57;;;10.72;80.96
25944;BME280;13742;49.306;8.636;2023-03-22T00:03:57;100318.09;;;10.71;81.23
25944;BME280;13742;49.306;8.636;2023-03-22T00:04:57;100317.16;;;10.68;80.66
25944;BME280;13742;49.306;8.636;2023-03-22T00:05:57;100316.69;;;10.67;80.38
25944;BME280;13742;49.306;8.636;2023-03-22T00:06:57;100316.93;;;10.68;81.32
25944;BME280;13742;49.306;8.636;2023-03-22T00:07:57;100314.17;;;10.65;82.35
25944;BME280;13742;49.306;8.636;2023-03-22T00:08:57;100318.66;;;10.64;82.74
25944;BME280;13742;49.306;8.636;2023-03-22T00:09:57;100316.77;;;10.63;82.24
25944;BME280;13742;49.306;8.636;2023-03-22T00:10:57;100315.06;;;10.64;82.20
25944;BME280;13742;49.306;8.636;2023-03-22T00:11:57;100311.76;;;10.63;81.61
25944;BME280;13742;49.306;8.636;2023-03-22T00:12:57;100313.39;;;10.62;81.60
25944;BME280;13742;49.306;8.636;2023-03-22T00:13:58;100311.79;;;10.62;81.56
25944;BME280;13742;49.306;8.636;2023-03-22T00:14:59;100311.52;;;10.63;82.04
25944;BME280;13742;49.306;8.636;2023-03-22T00:15:58;100313.39;;;10.62;81.70
25944;BME280;13742;49.306;8.636;2023-03-22T00:16:57;100312.94;;;10.64;82.94
25944;BME280;13742;49.306;8.636;2023-03-22T00:17:58;100314.64;;;10.64;82.55
25944;BME280;13742;49.306;8.636;2023-03-22T00:18:57;100312.91;;;10.64;82.29
25944;BME280;13742;49.306;8.636;2023-03-22T00:19:57;100312.09;;;10.63;82.24
25944;BME280;13742;49.306;8.636;2023-03-22T00:20:58;100311.53;;;10.63;82.32
25944;BME280;13742;49.306;8.636;2023-03-22T00:21:59;100312.25;;;10.63;81.93
25944;BME280;13742;49.306;8.636;2023-03-22T00:22:57;100310.34;;;10.61;81.52
25944;BME280;13742;49.306;8.636;2023-03-22T00:23:57;100310.66;;;10.61;81.63
25944;BME280;13742;49.306;8.636;2023-03-22T00:24:57;100310.61;;;10.62;82.31
25944;BME280;13742;49.306;8.636;2023-03-22T00:25:57;100312.50;;;10.62;82.43
25944;BME280;13742;49.306;8.636;2023-03-22T00:26:57;100309.78;;;10.61;82.52
25944;BME280;13742;49.306;8.636;2023-03-22T00:27:57;100312.35;;;10.61;82.04
25944;BME280;13742;49.306;8.636;2023-03-22T00:28:57;100309.22;;;10.60;81.50
25944;BME280;13742;49.306;8.636;2023-03-22T00:29:57;100310.64;;;10.60;81.37
25944;BME280;13742;49.306;8.636;2023-03-22T00:30:58;100309.03;;;10.62;81.99
25944;BME280;13742;49.306;8.636;2023-03-22T00:31:57;100314.08;;;10.61;81.40
25944;BME280;13742;49.306;8.636;2023-03-22T00:32:57;100306.24;;;10.61;81.52
25944;BME280;13742;49.306;8.636;2023-03-22T00:33:57;100306.87;;;10.61;81.39
25944;BME280;13742;49.306;8.636;2023-03-22T00:34:57;100307.80;;;10.61;81.46
25944;BME280;13742;49.306;8.636;2023-03-22T00:35:58;100306.30;;;10.60;81.22
25944;BME280;13742;49.306;8.636;2023-03-22T00:36:57;100304.23;;;10.61;81.61
25944;BME280;13742;49.306;8.636;2023-03-22T00:38:05;100302.10;;;10.62;81.77
25944;BME280;13742;49.306;8.636;2023-03-22T00:38:57;100300.54;;;10.61;81.22
25944;BME280;13742;49.306;8.636;2023-03-22T00:39:57;100299.71;;;10.61;81.05
25944;BME280;13742;49.306;8.636;2023-03-22T00:41:03;100300.30;;;10.61;80.85
25944;BME280;13742;49.306;8.636;2023-03-22T00:41:57;100297.73;;;10.62;80.75
25944;BME280;13742;49.306;8.636;2023-03-22T00:42:57;100298.30;;;10.62;80.57
25944;BME280;13742;49.306;8.636;2023-03-22T00:43:57;100298.58;;;10.62;80.52
25944;BME280;13742;49.306;8.636;2023-03-22T00:44:57;100300.29;;;10.63;80.41
25944;BME280;13742;49.306;8.636;2023-03-22T00:45:57;100297.06;;;10.63;80.22
25944;BME280;13742;49.306;8.636;2023-03-22T00:46:57;100296.92;;;10.64;80.39
25944;BME280;13742;49.306;8.636;2023-03-22T00:47:57;100295.58;;;10.64;80.18
25944;BME280;13742;49.306;8.636;2023-03-22T00:48:57;100294.24;;;10.65;80.10
25944;BME280;13742;49.306;8.636;2023-03-22T00:49:57;100292.59;;;10.66;80.16
25944;BME280;13742;49.306;8.636;2023-03-22T00:50:57;100291.13;;;10.66;79.70
25944;BME280;13742;49.306;8.636;2023-03-22T00:51:57;100285.34;;;10.66;79.80
25944;BME280;13742;49.306;8.636;2023-03-22T00:52:57;100284.66;;;10.67;80.19
25944;BME280;13742;49.306;8.636;2023-03-22T00:53:57;100283.09;;;10.67;79.82
25944;BME280;13742;49.306;8.636;2023-03-22T00:54:57;100284.58;;;10.67;79.88
25944;BME280;13742;49.306;8.636;2023-03-22T00:55:57;100280.72;;;10.66;79.54
25944;BME280;13742;49.306;8.636;2023-03-22T00:56:57;100277.06;;;10.67;79.86
25944;BME280;13742;49.306;8.636;2023-03-22T00:57:57;100279.30;;;10.67;79.70
25944;BME280;13742;49.306;8.636;2023-03-22T00:58:57;100273.23;;;10.66;79.42
25944;BME280;13742;49.306;8.636;2023-03-22T00:59:57;100272.45;;;10.66;79.47
25944;BME280;13742;49.306;8.636;2023-03-22T01:00:57;100268.38;;;10.65;79.33
25944;BME280;13742;49.306;8.636;2023-03-22T01:01:57;100267.33;;;10.66;79.54
25944;BME280;13742;49.306;8.636;2023-03-22T01:02:59;100266.08;;;10.66;79.41
25944;BME280;13742;49.306;8.636;2023-03-22T01:03:57;100267.08;;;10.66;79.38
25944;BME280;13742;49.306;8.636;2023-03-22T01:04:57;100259.73;;;10.65;79.14
25944;BME280;13742;49.306;8.636;2023-03-22T01:05:57;100262.91;;;10.64;78.98
25944;BME280;13742;49.306;8.636;2023-03-22T01:07:02;100260.73;;;10.64;79.07
25944;BME280;13742;49.306;8.636;2023-03-22T01:08:01;100262.30;;;10.64;79.20
25944;BME280;13742;49.306;8.636;2023-03-22T01:08:57;100260.58;;;10.62;78.74
25944;BME280;13742;49.306;8.636;2023-03-22T01:09:57;100262.05;;;10.60;78.55
25944;BME280;13742;49.306;8.636;2023-03-22T01:10:57;100257.86;;;10.60;78.49
25944;BME280;13742;49.306;8.636;2023-03-22T01:11:57;100257.79;;;10.60;78.82
25944;BME280;13742;49.306;8.636;2023-03-22T01:12:57;100260.16;;;10.59;78.88
25944;BME280;13742;49.306;8.636;2023-03-22T01:13:58;100257.93;;;10.58;78.64
25944;BME280;13742;49.306;8.636;2023-03-22T01:14:57;100258.92;;;10.58;78.59
25944;BME280;13742;49.306;8.636;2023-03-22T01:15:57;100257.20;;;10.60;79.22
25944;BME280;13742;49.306;8.636;2023-03-22T01:16:57;100259.60;;;10.60;78.86
25944;BME280;13742;49.306;8.636;2023-03-22T01:17:57;100253.75;;;10.59;78.80
25944;BME280;13742;49.306;8.636;2023-03-22T01:18:57;100259.31;;;10.59;78.82
25944;BME280;13742;49.306;8.636;2023-03-22T01:19:57;100256.66;;;10.60;78.91
25944;BME280;13742;49.306;8.636;2023-03-22T01:20:58;100253.65;;;10.61;78.95
25944;BME280;13742;49.306;8.636;2023-03-22T01:21:57;100255.13;;;10.61;78.93
25944;BME280;13742;49.306;8.636;2023-03-22T01:22:57;100255.54;;;10.62;79.02
25944;BME280;13742;49.306;8.636;2023-03-22T01:23:57;100247.39;;;10.62;79.21
25944;BME280;13742;49.306;8.636;2023-03-22T01:24:57;100248.55;;;10.62;79.13
25944;BME280;13742;49.306;8.636;2023-03-22T01:25:57;100243.13;;;10.61;78.77
25944;BME280;13742;49.306;8.636;2023-03-22T01:26:57;100242.59;;;10.61;78.55
25944;BME280;13742;49.306;8.636;2023-03-22T01:27:57;100245.28;;;10.61;78.43
25944;BME280;13742;49.306;8.636;2023-03-22T01:28:57;100239.17;;;10.61;78.91
25944;BME280;13742;49.306;8.636;2023-03-22T01:29:57;100239.23;;;10.61;78.78
25944;BME280;13742;49.306;8.636;2023-03-22T01:31:00;100238.07;;;10.61;78.92
25944;BME280;13742;49.306;8.636;2023-03-22T01:31:57;100236.64;;;10.62;79.36
25944;BME280;13742;49.306;8.636;2023-03-22T01:32:57;100235.05;;;10.61;79.29
25944;BME280;13742;49.306;8.636;2023-03-22T01:33:57;100238.64;;;10.62;79.47
25944;BME280;13742;49.306;8.636;2023-03-22T01:34:57;100237.85;;;10.61;79.30
25944;BME280;13742;49.306;8.636;2023-03-22T01:35:57;100241.98;;;10.61;79.26
25944;BME280;13742;49.306;8.636;2023-03-22T01:36:57;100240.73;;;10.62;79.92
25944;BME280;13742;49.306;8.636;2023-03-22T01:37:57;100241.09;;;10.62;79.72
25944;BME280;13742;49.306;8.636;2023-03-22T01:38:58;100240.23;;;10.62;79.72
25944;BME280;13742;49.306;8.636;2023-03-22T01:39:57;100242.55;;;10.62;79.98
25944;BME280;13742;49.306;8.636;2023-03-22T01:40:57;100241.59;;;10.62;79.79
25944;BME280;13742;49.306;8.636;2023-03-22T01:41:57;100242.80;;;10.61;79.42
25944;BME280;13742;49.306;8.636;2023-03-22T01:42:57;100245.80;;;10.62;79.37
25944;BME280;13742;49.306;8.636;2023-03-22T01:45:57;100244.26;;;10.62;79.46
25944;BME280;13742;49.306;8.636;2023-03-22T01:46:57;100240.66;;;10.61;79.23
25944;BME280;13742;49.306;8.636;2023-03-22T01:47:58;100241.65;;;10.61;79.15
25944;BME280;13742;49.306;8.636;2023-03-22T01:48:57;100240.84;;;10.62;79.43
25944;BME280;13742;49.306;8.636;2023-03-22T01:49:57;100238.13;;;10.62;79.12
25944;BME280;13742;49.306;8.636;2023-03-22T01:50:59;100236.88;;;10.62;79.43
25944;BME280;13742;49.306;8.636;2023-03-22T01:51:59;100240.34;;;10.62;79.30
25944;BME280;13742;49.306;8.636;2023-03-22T01:52:57;100234.50;;;10.62;79.59
25944;BME280;13742;49.306;8.636;2023-03-22T01:53:59;100233.25;;;10.63;79.80
25944;BME280;13742;49.306;8.636;2023-03-22T01:54:57;100233.17;;;10.62;79.24
25944;BME280;13742;49.306;8.636;2023-03-22T01:55:57;100237.36;;;10.61;79.19
25944;BME280;13742;49.306;8.636;2023-03-22T01:56:57;100237.32;;;10.62;79.93
25944;BME280;13742;49.306;8.636;2023-03-22T01:57:57;100235.23;;;10.62;79.82
25944;BME280;13742;49.306;8.636;2023-03-22T01:58:57;100237.73;;;10.61;79.38
25944;BME280;13742;49.306;8.636;2023-03-22T01:59:57;100236.40;;;10.61;79.22
25944;BME280;13742;49.306;8.636;2023-03-22T02:00:57;100236.40;;;10.61;79.17
25944;BME280;13742;49.306;8.636;2023-03-22T02:02:01;100238.13;;;10.61;78.96
25944;BME280;13742;49.306;8.636;2023-03-22T02:02:57;100235.98;;;10.61;78.90
25944;BME280;13742;49.306;8.636;2023-03-22T02:04:57;100236.97;;;10.61;78.82
25944;BME280;13742;49.306;8.636;2023-03-22T02:05:57;100234.44;;;10.61;79.04
25944;BME280;13742;49.306;8.636;2023-03-22T02:06:57;100233.65;;;10.60;78.83
25944;BME280;13742;49.306;8.636;2023-03-22T02:07:57;100231.38;;;10.60;78.88
25944;BME280;13742;49.306;8.636;2023-03-22T02:08:57;100233.09;;;10.60;78.92
25944;BME280;13742;49.306;8.636;2023-03-22T02:09:57;100230.13;;;10.60;78.88
25944;BME280;13742;49.306;8.636;2023-03-22T02:10:57;100229.81;;;10.59;78.63
25944;BME280;13742;49.306;8.636;2023-03-22T02:12:11;100227.61;;;10.59;78.81
25944;BME280;13742;49.306;8.636;2023-03-22T02:15:02;100224.25;;;10.58;79.05
25944;BME280;13742;49.306;8.636;2023-03-22T02:16:05;100224.63;;;10.59;79.00
25944;BME280;13742;49.306;8.636;2023-03-22T02:17:00;100221.14;;;10.58;78.78
25944;BME280;13742;49.306;8.636;2023-03-22T02:24:02;100226.14;;;10.59;78.68
25944;BME280;13742;49.306;8.636;2023-03-22T02:26:04;100228.36;;;10.60;78.83
25944;BME280;13742;49.306;8.636;2023-03-22T02:28:04;100225.01;;;10.61;78.83
25944;BME280;13742;49.306;8.636;2023-03-22T02:40:02;100219.53;;;10.65;78.54
25944;BME280;13742;49.306;8.636;2023-03-22T02:41:01;100223.20;;;10.66;78.77
25944;BME280;13742;49.306;8.636;2023-03-22T02:42:05;100218.91;;;10.66;78.80
25944;BME280;13742;49.306;8.636;2023-03-22T02:45:43;100219.56;;;10.68;78.61
25944;BME280;13742;49.306;8.636;2023-03-22T02:46:01;100219.91;;;10.69;78.42
25944;BME280;13742;49.306;8.636;2023-03-22T02:47:01;100215.34;;;10.69;78.33
25944;BME280;13742;49.306;8.636;2023-03-22T02:49:59;100218.52;;;10.71;78.74
25944;BME280;13742;49.306;8.636;2023-03-22T02:50:59;100216.87;;;10.71;78.45
25944;BME280;13742;49.306;8.636;2023-03-22T02:51:58;100216.98;;;10.71;78.41
25944;BME280;13742;49.306;8.636;2023-03-22T02:53:09;100224.70;;;10.72;78.62
25944;BME280;13742;49.306;8.636;2023-03-22T02:55:58;100220.81;;;10.73;78.51
25944;BME280;13742;49.306;8.636;2023-03-22T02:56:58;100221.59;;;10.73;78.52
25944;BME280;13742;49.306;8.636;2023-03-22T02:58:02;100220.73;;;10.74;78.28
25944;BME280;13742;49.306;8.636;2023-03-22T02:58:58;100217.55;;;10.75;78.39
25944;BME280;13742;49.306;8.636;2023-03-22T02:59:57;100217.39;;;10.75;78.56
25944;BME280;13742;49.306;8.636;2023-03-22T03:00:59;100215.43;;;10.76;78.25
25944;BME280;13742;49.306;8.636;2023-03-22T03:01:58;100213.39;;;10.76;78.34
25944;BME280;13742;49.306;8.636;2023-03-22T03:03:00;100219.85;;;10.77;78.31
25944;BME280;13742;49.306;8.636;2023-03-22T03:03:58;100210.05;;;10.76;78.10
25944;BME280;13742;49.306;8.636;2023-03-22T03:04:57;100211.13;;;10.78;77.58
25944;BME280;13742;49.306;8.636;2023-03-22T03:05:58;100210.53;;;10.78;77.59
25944;BME280;13742;49.306;8.636;2023-03-22T03:06:59;100208.99;;;10.79;77.48
25944;BME280;13742;49.306;8.636;2023-03-22T03:07:58;100200.57;;;10.79;77.09
25944;BME280;13742;49.306;8.636;2023-03-22T03:08:57;100201.60;;;10.80;76.79
25944;BME280;13742;49.306;8.636;2023-03-22T03:09:57;100200.94;;;10.81;76.67
25944;BME280;13742;49.306;8.636;2023-03-22T03:10:57;100201.23;;;10.82;76.61
25944;BME280;13742;49.306;8.636;2023-03-22T03:11:57;100203.23;;;10.83;76.78
25944;BME280;13742;49.306;8.636;2023-03-22T03:12:57;100203.84;;;10.83;76.77
25944;BME280;13742;49.306;8.636;2023-03-22T03:13:57;100200.27;;;10.83;76.61
25944;BME280;13742;49.306;8.636;2023-03-22T03:14:57;100201.16;;;10.83;76.59
25944;BME280;13742;49.306;8.636;2023-03-22T03:15:58;100200.95;;;10.84;76.49
25944;BME280;13742;49.306;8.636;2023-03-22T03:21:59;100196.89;;;10.82;76.25
25944;BME280;13742;49.306;8.636;2023-03-22T03:26:02;100203.97;;;10.81;76.04
25944;BME280;13742;49.306;8.636;2023-03-22T03:27:01;100199.53;;;10.81;76.16
25944;BME280;13742;49.306;8.636;2023-03-22T03:28:02;100198.84;;;10.81;76.22
25944;BME280;13742;49.306;8.636;2023-03-22T03:28:58;100200.58;;;10.82;75.90
25944;BME280;13742;49.306;8.636;2023-03-22T03:30:18;100199.67;;;10.81;75.96
25944;BME280;13742;49.306;8.636;2023-03-22T03:31:02;100206.88;;;10.81;75.98
25944;BME280;13742;49.306;8.636;2023-03-22T03:32:59;100202.15;;;10.81;76.18
25944;BME280;13742;49.306;8.636;2023-03-22T03:34:58;100196.38;;;10.81;75.85
25944;BME280;13742;49.306;8.636;2023-03-22T03:35:58;100199.38;;;10.80;75.91
25944;BME280;13742;49.306;8.636;2023-03-22T03:36:59;100198.22;;;10.79;75.85
25944;BME280;13742;49.306;8.636;2023-03-22T03:37:59;100200.46;;;10.79;75.85
25944;BME280;13742;49.306;8.636;2023-03-22T03:38:57;100199.25;;;10.79;75.88
25944;BME280;13742;49.306;8.636;2023-03-22T03:39:59;100202.94;;;10.78;75.70
25944;BME280;13742;49.306;8.636;2023-03-22T03:41:57;100203.21;;;10.79;75.86
25944;BME280;13742;49.306;8.636;2023-03-22T03:42:57;100203.21;;;10.79;76.08
25944;BME280;13742;49.306;8.636;2023-03-22T03:43:57;100199.81;;;10.77;75.92
25944;BME280;13742;49.306;8.636;2023-03-22T03:44:57;100199.78;;;10.78;75.89
25944;BME280;13742;49.306;8.636;2023-03-22T03:45:57;100200.81;;;10.76;76.00
25944;BME280;13742;49.306;8.636;2023-03-22T03:46:57;100198.66;;;10.76;76.02
25944;BME280;13742;49.306;8.636;2023-03-22T03:47:58;100196.52;;;10.76;76.22
25944;BME280;13742;49.306;8.636;2023-03-22T03:48:57;100197.19;;;10.75;76.14
25944;BME280;13742;49.306;8.636;2023-03-22T03:49:57;100195.83;;;10.76;76.18
25944;BME280;13742;49.306;8.636;2023-03-22T03:50:57;100194.95;;;10.75;76.24
25944;BME280;13742;49.306;8.636;2023-03-22T03:51:57;100196.53;;;10.75;76.34
25944;BME280;13742;49.306;8.636;2023-03-22T03:52:57;100196.47;;;10.75;76.45
25944;BME280;13742;49.306;8.636;2023-03-22T03:53:57;100198.58;;;10.75;76.49
25944;BME280;13742;49.306;8.636;2023-03-22T03:54:57;100199.72;;;10.75;76.71
25944;BME280;13742;49.306;8.636;2023-03-22T03:55:57;100197.69;;;10.75;76.58
25944;BME280;13742;49.306;8.636;2023-03-22T03:56:57;100199.24;;;10.75;76.63
25944;BME280;13742;49.306;8.636;2023-03-22T03:57:57;100204.81;;;10.71;76.82
25944;BME280;13742;49.306;8.636;2023-03-22T03:58:57;100200.98;;;10.72;76.96
25944;BME280;13742;49.306;8.636;2023-03-22T03:59:57;100202.77;;;10.71;77.14
25944;BME280;13742;49.306;8.636;2023-03-22T04:00:57;100207.56;;;10.71;77.07
25944;BME280;13742;49.306;8.636;2023-03-22T04:01:57;100203.84;;;10.69;76.75
25944;BME280;13742;49.306;8.636;2023-03-22T04:02:57;100205.20;;;10.68;77.78
25944;BME280;13742;49.306;8.636;2023-03-22T04:03:57;100203.67;;;10.67;77.61
25944;BME280;13742;49.306;8.636;2023-03-22T04:04:57;100206.73;;;10.66;77.68
25944;BME280;13742;49.306;8.636;2023-03-22T04:05:58;100204.89;;;10.64;77.47
25944;BME280;13742;49.306;8.636;2023-03-22T04:06:58;100207.73;;;10.63;77.26
25944;BME280;13742;49.306;8.636;2023-03-22T04:07:57;100209.97;;;10.63;77.27
25944;BME280;13742;49.306;8.636;2023-03-22T04:08:57;100207.09;;;10.61;77.25
25944;BME280;13742;49.306;8.636;2023-03-22T04:09:57;100205.28;;;10.60;77.19
25944;BME280;13742;49.306;8.636;2023-03-22T04:10:57;100202.19;;;10.59;77.29
25944;BME280;13742;49.306;8.636;2023-03-22T04:11:57;100202.82;;;10.58;77.33
25944;BME280;13742;49.306;8.636;2023-03-22T04:12:57;100200.38;;;10.56;77.23
25944;BME280;13742;49.306;8.636;2023-03-22T04:13:57;100197.94;;;10.56;77.27
25944;BME280;13742;49.306;8.636;2023-03-22T04:14:57;100196.30;;;10.54;77.34
25944;BME280;13742;49.306;8.636;2023-03-22T04:16:00;100201.01;;;10.53;77.21
25944;BME280;13742;49.306;8.636;2023-03-22T04:16:57;100200.05;;;10.52;77.25
25944;BME280;13742;49.306;8.636;2023-03-22T04:17:57;100195.74;;;10.51;77.37
25944;BME280;13742;49.306;8.636;2023-03-22T04:18:57;100199.44;;;10.49;77.13
25944;BME280;13742;49.306;8.636;2023-03-22T04:19:57;100195.30;;;10.48;77.19
25944;BME280;13742;49.306;8.636;2023-03-22T04:20:57;100198.58;;;10.47;77.23
25944;BME280;13742;49.306;8.636;2023-03-22T04:21:57;100195.71;;;10.47;77.22
25944;BME280;13742;49.306;8.636;2023-03-22T04:22:57;100196.09;;;10.47;77.31
25944;BME280;13742;49.306;8.636;2023-03-22T04:23:57;100195.03;;;10.46;77.31
25944;BME280;13742;49.306;8.636;2023-03-22T04:24:59;100192.72;;;10.46;77.55
25944;BME280;13742;49.306;8.636;2023-03-22T04:25:58;100191.93;;;10.45;77.30
25944;BME280;13742;49.306;8.636;2023-03-22T04:26:57;100191.41;;;10.44;77.52
25944;BME280;13742;49.306;8.636;2023-03-22T04:27:59;100188.22;;;10.44;77.92
25944;BME280;13742;49.306;8.636;2023-03-22T04:28:57;100189.55;;;10.43;77.76
25944;BME280;13742;49.306;8.636;2023-03-22T04:29:59;100185.76;;;10.43;77.89
25944;BME280;13742;49.306;8.636;2023-03-22T04:30:57;100185.21;;;10.42;78.26
25944;BME280;13742;49.306;8.636;2023-03-22T04:31:57;100178.64;;;10.41;78.15
25944;BME280;13742;49.306;8.636;2023-03-22T04:32:57;100178.34;;;10.41;77.81
25944;BME280;13742;49.306;8.636;2023-03-22T04:33:59;100182.20;;;10.40;77.99
25944;BME280;13742;49.306;8.636;2023-03-22T04:34:57;100181.98;;;10.40;78.32
25944;BME280;13742;49.306;8.636;2023-03-22T04:35:57;100179.64;;;10.39;78.46
25944;BME280;13742;49.306;8.636;2023-03-22T04:37:01;100181.57;;;10.39;78.06
25944;BME280;13742;49.306;8.636;2023-03-22T04:37:58;100178.61;;;10.38;78.55
25944;BME280;13742;49.306;8.636;2023-03-22T04:38:57;100173.42;;;10.36;78.16
25944;BME280;13742;49.306;8.636;2023-03-22T04:39:57;100175.73;;;10.36;78.52
25944;BME280;13742;49.306;8.636;2023-03-22T04:40:57;100175.77;;;10.35;78.26
25944;BME280;13742;49.306;8.636;2023-03-22T04:41:57;100176.19;;;10.35;78.51
25944;BME280;13742;49.306;8.636;2023-03-22T04:42:57;100176.11;;;10.34;78.50
25944;BME280;13742;49.306;8.636;2023-03-22T04:44:02;100177.09;;;10.33;78.49
25944;BME280;13742;49.306;8.636;2023-03-22T04:44:57;100174.14;;;10.32;78.47
25944;BME280;13742;49.306;8.636;2023-03-22T04:46:00;100174.06;;;10.31;78.53
25944;BME280;13742;49.306;8.636;2023-03-22T04:46:57;100175.00;;;10.30;78.45
25944;BME280;13742;49.306;8.636;2023-03-22T04:47:57;100173.77;;;10.29;78.37
25944;BME280;13742;49.306;8.636;2023-03-22T04:48:57;100174.56;;;10.28;78.20
25944;BME280;13742;49.306;8.636;2023-03-22T04:49:57;100173.69;;;10.28;78.28
25944;BME280;13742;49.306;8.636;2023-03-22T04:51:03;100172.59;;;10.28;78.20
25944;BME280;13742;49.306;8.636;2023-03-22T04:51:57;100173.45;;;10.27;78.33
25944;BME280;13742;49.306;8.636;2023-03-22T04:52:57;100173.31;;;10.27;78.14
25944;BME280;13742;49.306;8.636;2023-03-22T04:53:57;100173.57;;;10.26;77.98
25944;BME280;13742;49.306;8.636;2023-03-22T04:54:57;100170.81;;;10.25;77.85
25944;BME280;13742;49.306;8.636;2023-03-22T04:55:57;100170.66;;;10.25;77.77
25944;BME280;13742;49.306;8.636;2023-03-22T04:56:57;100174.05;;;10.25;77.62
25944;BME280;13742;49.306;8.636;2023-03-22T04:57:57;100172.89;;;10.24;77.52
25944;BME280;13742;49.306;8.636;2023-03-22T04:58:57;100175.69;;;10.24;77.49
25944;BME280;13742;49.306;8.636;2023-03-22T04:59:57;100174.05;;;10.23;77.41
25944;BME280;13742;49.306;8.636;2023-03-22T05:00:57;100177.55;;;10.24;77.40
25944;BME280;13742;49.306;8.636;2023-03-22T05:01:57;100178.48;;;10.24;77.37
25944;BME280;13742;49.306;8.636;2023-03-22T05:02:57;100179.99;;;10.22;77.24
25944;BME280;13742;49.306;8.636;2023-03-22T05:03:57;100179.67;;;10.22;77.37
25944;BME280;13742;49.306;8.636;2023-03-22T05:04:57;100180.80;;;10.22;77.39
25944;BME280;13742;49.306;8.636;2023-03-22T05:05:58;100177.59;;;10.21;77.20
25944;BME280;13742;49.306;8.636;2023-03-22T05:06:57;100174.06;;;10.21;77.45
25944;BME280;13742;49.306;8.636;2023-03-22T05:07:57;100177.04;;;10.20;77.33
25944;BME280;13742;49.306;8.636;2023-03-22T05:08:57;100179.44;;;10.20;77.28
25944;BME280;13742;49.306;8.636;2023-03-22T05:09:57;100176.99;;;10.19;77.05
25944;BME280;13742;49.306;8.636;2023-03-22T05:10:57;100170.45;;;10.19;77.14
25944;BME280;13742;49.306;8.636;2023-03-22T05:11:57;100174.99;;;10.18;77.13
25944;BME280;13742;49.306;8.636;2023-03-22T05:12:57;100171.69;;;10.18;77.16
25944;BME280;13742;49.306;8.636;2023-03-22T05:13:57;100172.95;;;10.18;77.02
25944;BME280;13742;49.306;8.636;2023-03-22T05:14:57;100176.70;;;10.16;77.04
25944;BME280;13742;49.306;8.636;2023-03-22T05:15:58;100174.05;;;10.15;76.90
25944;BME280;13742;49.306;8.636;2023-03-22T05:16:57;100179.69;;;10.14;76.89
25944;BME280;13742;49.306;8.636;2023-03-22T05:17:57;100177.55;;;10.14;76.90
25944;BME280;13742;49.306;8.636;2023-03-22T05:18:57;100181.84;;;10.12;76.84
25944;BME280;13742;49.306;8.636;2023-03-22T05:19:57;100182.78;;;10.12;77.15
25944;BME280;13742;49.306;8.636;2023-03-22T05:20:57;100183.44;;;10.12;77.26
25944;BME280;13742;49.306;8.636;2023-03-22T05:22:00;100186.53;;;10.10;77.00
25944;BME280;13742;49.306;8.636;2023-03-22T05:22:57;100188.89;;;10.10;77.10
25944;BME280;13742;49.306;8.636;2023-03-22T05:23:57;100185.24;;;10.10;77.08
25944;BME280;13742;49.306;8.636;2023-03-22T05:24:57;100189.44;;;10.10;77.19
25944;BME280;13742;49.306;8.636;2023-03-22T05:25:57;100186.73;;;10.10;77.33
25944;BME280;13742;49.306;8.636;2023-03-22T05:26:59;100189.14;;;10.09;77.09
25944;BME280;13742;49.306;8.636;2023-03-22T05:28:00;100191.47;;;10.07;77.05
25944;BME280;13742;49.306;8.636;2023-03-22T05:28:57;100190.63;;;10.07;77.30
25944;BME280;13742;49.306;8.636;2023-03-22T05:29:57;100189.00;;;10.05;77.07
25944;BME280;13742;49.306;8.636;2023-03-22T05:30:57;100186.52;;;10.03;77.09
25944;BME280;13742;49.306;8.636;2023-03-22T05:31:57;100184.02;;;10.02;77.04
25944;BME280;13742;49.306;8.636;2023-03-22T05:32:59;100186.98;;;10.02;77.24
25944;BME280;13742;49.306;8.636;2023-03-22T05:33:57;100189.41;;;9.99;77.17
25944;BME280;13742;49.306;8.636;2023-03-22T05:34:57;100189.09;;;9.98;77.31
25944;BME280;13742;49.306;8.636;2023-03-22T05:35:57;100190.00;;;9.96;77.07
25944;BME280;13742;49.306;8.636;2023-03-22T05:37:00;100190.95;;;9.94;77.11
25944;BME280;13742;49.306;8.636;2023-03-22T05:37:57;100190.98;;;9.93;77.05
25944;BME280;13742;49.306;8.636;2023-03-22T05:38:57;100186.34;;;9.92;77.46
25944;BME280;13742;49.306;8.636;2023-03-22T05:39:57;100185.03;;;9.90;77.44
25944;BME280;13742;49.306;8.636;2023-03-22T05:40:57;100182.88;;;9.90;77.67
25944;BME280;13742;49.306;8.636;2023-03-22T05:41:57;100186.44;;;9.89;77.79
25944;BME280;13742;49.306;8.636;2023-03-22T05:42:57;100186.41;;;9.88;77.74
25944;BME280;13742;49.306;8.636;2023-03-22T05:43:57;100187.27;;;9.87;77.68
25944;BME280;13742;49.306;8.636;2023-03-22T05:44:57;100184.69;;;9.87;78.16
25944;BME280;13742;49.306;8.636;2023-03-22T05:45:57;100188.38;;;9.86;77.82
25944;BME280;13742;49.306;8.636;2023-03-22T05:46:57;100186.92;;;9.84;77.83
25944;BME280;13742;49.306;8.636;2023-03-22T05:47:57;100188.30;;;9.84;78.06
25944;BME280;13742;49.306;8.636;2023-03-22T05:48:57;100189.13;;;9.84;78.16
25944;BME280;13742;49.306;8.636;2023-03-22T05:49:57;100188.66;;;9.83;77.88
25944;BME280;13742;49.306;8.636;2023-03-22T05:50:57;100187.63;;;9.81;77.86
25944;BME280;13742;49.306;8.636;2023-03-22T05:51:57;100189.88;;;9.82;78.14
25944;BME280;13742;49.306;8.636;2023-03-22T05:52:57;100192.73;;;9.81;78.26
25944;BME280;13742;49.306;8.636;2023-03-22T05:53:57;100192.09;;;9.82;78.74
25944;BME280;13742;49.306;8.636;2023-03-22T05:54:57;100193.75;;;9.80;78.22